Time;durP1;ratioP1;P1;durP2;ratioP2;P2;SDS_P1;SDS_P2;PMS_P1;PMS_P2;Temp;Humidity;BMP_temperature;BMP_pressure;BME280_temperature;BME280_humidity;BME280_pressure;Samples;Min_cycle;Max_cycle;Signal;HPM_P1;HPM_P2
2022/02/14 00:00:00;;;;;;;16.93;6.37;;;1.00;99.90;;;;;;1935201;74;21097;-74
2022/02/14 00:02:29;;;;;;;11.70;6.37;;;1.00;99.90;;;;;;1935036;74;21049;-74
2022/02/14 00:04:56;;;;;;;10.35;6.00;;;1.00;99.90;;;;;;1934937;74;21158;-74
2022/02/14 00:07:24;;;;;;;10.48;6.60;;;1.00;99.90;;;;;;1935086;74;21006;-75
2022/02/14 00:09:51;;;;;;;11.97;7.37;;;1.00;99.90;;;;;;1935355;74;21176;-76
2022/02/14 00:12:18;;;;;;;11.10;7.08;;;1.00;99.90;;;;;;1935587;74;21050;-76
2022/02/14 00:14:47;;;;;;;12.00;7.33;;;1.00;99.90;;;;;;1935003;74;21434;-75
2022/02/14 00:17:15;;;;;;;12.20;7.65;;;0.90;99.90;;;;;;1935037;74;21556;-75
2022/02/14 00:19:42;;;;;;;12.75;7.55;;;0.80;99.90;;;;;;1935328;74;21045;-73
2022/02/14 00:22:09;;;;;;;16.23;7.50;;;0.90;99.90;;;;;;1935522;74;21048;-73
2022/02/14 00:24:37;;;;;;;12.63;7.50;;;0.90;99.90;;;;;;1935530;74;21461;-73
2022/02/14 00:27:05;;;;;;;14.38;7.30;;;0.90;99.90;;;;;;1935367;74;21543;-73
2022/02/14 00:29:34;;;;;;;14.35;7.37;;;0.90;99.90;;;;;;1935556;74;21111;-74
2022/02/14 00:32:02;;;;;;;13.53;6.92;;;0.90;99.90;;;;;;1935331;74;21057;-74
2022/02/14 00:34:29;;;;;;;15.50;7.30;;;1.00;99.90;;;;;;1935656;74;21018;-76
2022/02/14 00:36:56;;;;;;;15.72;7.80;;;1.00;99.90;;;;;;1935056;74;21014;-76
2022/02/14 00:39:23;;;;;;;12.50;6.40;;;1.10;99.90;;;;;;1934602;74;21107;-75
2022/02/14 00:41:51;;;;;;;19.80;6.60;;;1.10;99.90;;;;;;1934626;74;21569;-76
2022/02/14 00:44:18;;;;;;;22.13;5.92;;;1.20;99.90;;;;;;1934623;74;21049;-75
2022/02/14 00:46:45;;;;;;;12.23;6.03;;;1.20;99.90;;;;;;1934765;74;21456;-76
2022/02/14 00:49:13;;;;;;;11.20;5.95;;;1.30;99.90;;;;;;1935089;74;21018;-73
2022/02/14 00:51:40;;;;;;;9.48;5.75;;;1.30;99.90;;;;;;1935371;74;21065;-75
2022/02/14 00:54:08;;;;;;;13.98;6.50;;;1.40;99.90;;;;;;1935135;74;21096;-75
2022/02/14 00:56:35;;;;;;;14.38;6.10;;;1.40;99.90;;;;;;1934743;74;21073;-74
2022/02/14 00:59:02;;;;;;;13.45;6.75;;;1.40;99.90;;;;;;1934925;74;21053;-74
2022/02/14 01:01:30;;;;;;;10.25;6.42;;;1.40;99.90;;;;;;1934771;74;21010;-74
2022/02/14 01:03:57;;;;;;;10.93;5.90;;;1.40;99.90;;;;;;1934855;74;21056;-76
2022/02/14 01:06:28;;;;;;;8.65;5.83;;;1.40;99.90;;;;;;1934726;74;21153;-76
2022/02/14 01:08:55;;;;;;;13.53;6.42;;;1.50;99.90;;;;;;1934747;74;21065;-74
2022/02/14 01:11:23;;;;;;;11.88;5.78;;;1.60;99.90;;;;;;1934880;74;21143;-75
2022/02/14 01:13:52;;;;;;;15.75;6.05;;;1.60;99.90;;;;;;1934732;74;21111;-76
2022/02/14 01:16:19;;;;;;;12.35;5.62;;;1.60;99.90;;;;;;1899404;74;21077;-76
2022/02/14 01:18:48;;;;;;;8.88;5.62;;;1.70;99.90;;;;;;1934439;74;21046;-74
2022/02/14 01:21:16;;;;;;;7.60;4.80;;;1.70;99.90;;;;;;1933997;73;21516;-74
2022/02/14 01:23:43;;;;;;;16.75;5.60;;;1.80;99.90;;;;;;1934483;74;21135;-74
2022/02/14 01:26:10;;;;;;;13.53;6.17;;;1.80;99.90;;;;;;1934538;74;21080;-75
2022/02/14 01:28:38;;;;;;;8.45;4.83;;;1.70;99.90;;;;;;1934594;74;21045;-75
2022/02/14 01:31:05;;;;;;;11.00;5.12;;;1.70;99.90;;;;;;1934745;74;21108;-76
2022/02/14 01:33:32;;;;;;;8.55;5.22;;;1.70;99.90;;;;;;1934667;74;21049;-76
2022/02/14 01:36:00;;;;;;;8.78;5.17;;;1.70;99.90;;;;;;1934676;74;21006;-76
2022/02/14 01:38:27;;;;;;;10.95;5.95;;;1.70;99.90;;;;;;1934809;74;21437;-76
2022/02/14 01:40:54;;;;;;;11.12;5.28;;;1.80;99.90;;;;;;1934615;74;21041;-75
2022/02/14 01:43:21;;;;;;;14.00;5.47;;;1.80;99.90;;;;;;1934762;74;21041;-76
2022/02/14 01:45:49;;;;;;;9.93;5.45;;;1.80;99.90;;;;;;1934646;74;21014;-75
2022/02/14 01:48:16;;;;;;;9.58;5.28;;;1.80;99.90;;;;;;1934751;74;21119;-74
2022/02/14 01:50:46;;;;;;;10.45;5.55;;;1.90;99.90;;;;;;1934647;74;21115;-76
2022/02/14 01:53:14;;;;;;;6.60;4.83;;;2.00;99.90;;;;;;1934795;74;21390;-74
2022/02/14 01:55:42;;;;;;;19.40;5.80;;;2.00;99.90;;;;;;1934733;74;21061;-74
2022/02/14 01:58:09;;;;;;;13.08;5.40;;;1.80;99.90;;;;;;1934716;74;21106;-76
2022/02/14 02:00:37;;;;;;;8.15;5.17;;;1.90;99.90;;;;;;1934409;74;21107;-76
2022/02/14 02:03:04;;;;;;;14.45;5.22;;;2.00;99.90;;;;;;1934640;74;21136;-76
2022/02/14 02:05:31;;;;;;;8.83;4.87;;;2.00;99.90;;;;;;1934755;74;21150;-74
2022/02/14 02:07:59;;;;;;;10.72;5.87;;;2.00;99.90;;;;;;1934527;74;21433;-77
2022/02/14 02:10:27;;;;;;;9.95;5.33;;;1.90;99.90;;;;;;1934684;74;21115;-74
2022/02/14 02:12:56;;;;;;;8.50;4.90;;;2.00;99.90;;;;;;1934689;74;21044;-75
2022/02/14 02:15:24;;;;;;;7.35;4.90;;;2.10;99.90;;;;;;1934604;74;21041;-74
2022/02/14 02:17:51;;;;;;;12.15;5.45;;;2.10;99.90;;;;;;1934378;74;21084;-74
2022/02/14 02:20:21;;;;;;;9.13;4.28;;;2.20;99.90;;;;;;1934436;74;21047;-74
2022/02/14 02:22:50;;;;;;;8.68;4.92;;;2.20;99.90;;;;;;1934668;74;21093;-75
2022/02/14 02:25:17;;;;;;;9.58;5.87;;;2.20;99.90;;;;;;1934815;74;21116;-74
2022/02/14 02:27:45;;;;;;;7.72;4.58;;;2.20;99.90;;;;;;1934515;74;21104;-75
2022/02/14 02:30:17;;;;;;;12.55;4.90;;;2.20;99.90;;;;;;1934506;74;21126;-74
2022/02/14 02:32:44;;;;;;;10.30;5.08;;;2.30;99.90;;;;;;1934478;74;21053;-75
2022/02/14 02:35:12;;;;;;;8.28;4.60;;;2.30;99.90;;;;;;1934633;74;21759;-75
2022/02/14 02:37:41;;;;;;;11.60;4.78;;;2.30;99.90;;;;;;1925643;74;21135;-75
2022/02/14 02:40:09;;;;;;;7.40;4.12;;;2.30;99.90;;;;;;1934646;74;21111;-75
2022/02/14 02:42:37;;;;;;;9.18;4.67;;;2.30;99.90;;;;;;1934585;74;21041;-74
2022/02/14 02:45:04;;;;;;;9.83;5.12;;;2.30;99.90;;;;;;1934652;74;21107;-74
2022/02/14 02:47:32;;;;;;;10.53;4.75;;;2.30;99.90;;;;;;1928123;73;21120;-75
2022/02/14 02:50:01;;;;;;;6.95;4.55;;;2.40;99.90;;;;;;1934832;74;21038;-74
2022/02/14 02:52:28;;;;;;;8.08;4.85;;;2.30;99.90;;;;;;1934462;73;21099;-76
2022/02/14 02:54:56;;;;;;;7.53;4.78;;;2.40;99.90;;;;;;1934845;74;21441;-74
2022/02/14 02:57:24;;;;;;;9.60;4.90;;;2.30;99.90;;;;;;1934668;74;21477;-74
2022/02/14 02:59:52;;;;;;;7.28;4.25;;;2.40;99.90;;;;;;1934548;74;21069;-75
2022/02/14 03:02:20;;;;;;;12.15;5.00;;;2.40;99.90;;;;;;1934529;74;21150;-76
2022/02/14 03:04:48;;;;;;;10.28;5.03;;;2.50;99.90;;;;;;1934605;74;21129;-75
2022/02/14 03:07:15;;;;;;;7.70;4.10;;;2.40;99.90;;;;;;1934930;74;21014;-75
2022/02/14 03:09:43;;;;;;;11.15;4.55;;;2.40;99.90;;;;;;1934854;74;21116;-74
2022/02/14 03:12:10;;;;;;;9.63;4.83;;;2.40;99.90;;;;;;1934550;74;21466;-75
2022/02/14 03:14:39;;;;;;;9.68;4.97;;;2.40;99.90;;;;;;1934671;74;21465;-75
2022/02/14 03:17:09;;;;;;;5.30;4.33;;;2.30;99.90;;;;;;1934795;74;21038;-75
2022/02/14 03:19:36;;;;;;;8.95;4.45;;;2.30;99.90;;;;;;1934101;74;21039;-75
2022/02/14 03:22:04;;;;;;;15.65;4.90;;;2.30;99.90;;;;;;1934661;74;21048;-74
2022/02/14 03:24:31;;;;;;;7.80;4.78;;;2.10;99.90;;;;;;1934769;74;21441;-74
2022/02/14 03:26:58;;;;;;;12.05;4.47;;;2.20;99.90;;;;;;1934639;74;21106;-75
2022/02/14 03:29:26;;;;;;;7.45;4.55;;;2.10;99.90;;;;;;1934705;74;21038;-76
2022/02/14 03:31:54;;;;;;;11.10;5.03;;;2.10;99.90;;;;;;1934522;74;21062;-75
2022/02/14 03:34:21;;;;;;;9.90;4.65;;;2.10;99.90;;;;;;1934704;74;21065;-75
2022/02/14 03:36:49;;;;;;;8.98;4.10;;;1.90;99.90;;;;;;1934511;74;21095;-76
2022/02/14 03:39:16;;;;;;;8.18;4.50;;;1.90;99.90;;;;;;1934436;74;21049;-75
2022/02/14 03:41:43;;;;;;;7.42;4.70;;;1.90;99.90;;;;;;1934483;74;21041;-74
2022/02/14 03:44:11;;;;;;;12.00;4.40;;;1.80;99.90;;;;;;1934730;74;21518;-75
2022/02/14 03:46:38;;;;;;;6.30;4.35;;;1.70;99.90;;;;;;1934475;74;21010;-75
2022/02/14 03:49:05;;;;;;;7.25;4.53;;;1.60;99.90;;;;;;1934407;74;21125;-75
2022/02/14 03:51:33;;;;;;;10.60;5.05;;;1.60;99.90;;;;;;1934356;74;21167;-75
2022/02/14 03:54:00;;;;;;;6.67;4.35;;;1.50;99.90;;;;;;1934599;74;21523;-75
2022/02/14 03:56:28;;;;;;;7.65;4.70;;;1.50;99.90;;;;;;1934426;74;21114;-75
2022/02/14 03:58:55;;;;;;;9.50;4.97;;;1.40;99.90;;;;;;1934455;74;21030;-74
2022/02/14 04:01:23;;;;;;;11.45;4.45;;;1.30;99.90;;;;;;1934592;74;21071;-75
2022/02/14 04:03:52;;;;;;;8.03;4.50;;;1.30;99.90;;;;;;1934544;74;21113;-75
2022/02/14 04:06:20;;;;;;;12.63;4.70;;;1.30;99.90;;;;;;1934402;74;21016;-75
2022/02/14 04:08:47;;;;;;;14.28;4.30;;;1.20;99.90;;;;;;1934566;74;21442;-75
2022/02/14 04:11:15;;;;;;;10.60;4.40;;;1.20;99.90;;;;;;1934559;74;21049;-75
2022/02/14 04:13:42;;;;;;;6.17;4.33;;;1.20;99.90;;;;;;1934427;74;21173;-75
2022/02/14 04:16:09;;;;;;;9.45;5.37;;;1.20;99.90;;;;;;1934389;74;21045;-75
2022/02/14 04:18:37;;;;;;;4.80;3.85;;;1.20;99.90;;;;;;1934541;74;21521;-74
2022/02/14 04:21:04;;;;;;;12.70;5.22;;;1.10;99.90;;;;;;1934458;74;21014;-76
2022/02/14 04:23:31;;;;;;;5.40;3.58;;;1.10;99.90;;;;;;1934460;74;21553;-75
2022/02/14 04:25:59;;;;;;;5.97;3.80;;;1.00;99.90;;;;;;1934460;74;21110;-75
2022/02/14 04:28:26;;;;;;;10.10;4.40;;;1.00;99.90;;;;;;1934450;74;21049;-74
2022/02/14 04:30:53;;;;;;;10.35;4.28;;;1.10;99.90;;;;;;1934609;74;21053;-75
2022/02/14 04:33:21;;;;;;;7.25;4.28;;;1.10;99.90;;;;;;1934528;74;21011;-75
2022/02/14 04:35:48;;;;;;;8.73;4.08;;;1.10;99.90;;;;;;1934519;74;21481;-74
2022/02/14 04:38:15;;;;;;;6.28;3.72;;;1.10;99.90;;;;;;1934434;74;21049;-74
2022/02/14 04:40:42;;;;;;;6.78;4.00;;;1.10;99.90;;;;;;1934425;74;21076;-75
2022/02/14 04:43:10;;;;;;;8.35;3.70;;;1.00;99.90;;;;;;1934504;74;21053;-75
2022/02/14 04:45:37;;;;;;;6.15;3.95;;;1.00;99.90;;;;;;1934426;74;21018;-75
2022/02/14 04:48:05;;;;;;;8.48;3.90;;;0.90;99.90;;;;;;1934467;74;21119;-74
2022/02/14 04:50:32;;;;;;;6.47;3.92;;;1.00;99.90;;;;;;1934451;74;21097;-75
2022/02/14 04:53:00;;;;;;;6.40;4.05;;;0.90;99.90;;;;;;1934420;74;21437;-75
2022/02/14 04:55:27;;;;;;;5.60;3.87;;;1.00;99.90;;;;;;1934443;74;21492;-74
2022/02/14 04:57:54;;;;;;;5.05;3.35;;;0.90;99.90;;;;;;1934496;74;21119;-74
2022/02/14 05:00:22;;;;;;;8.60;3.30;;;1.00;99.90;;;;;;1934602;74;21068;-75
2022/02/14 05:02:50;;;;;;;5.70;3.67;;;1.00;99.90;;;;;;1934372;74;21139;-75
2022/02/14 05:05:17;;;;;;;6.65;3.55;;;1.00;99.90;;;;;;1934548;74;21449;-75
2022/02/14 05:07:46;;;;;;;6.42;3.37;;;1.00;99.90;;;;;;1934581;74;21045;-76
2022/02/14 05:10:14;;;;;;;3.27;2.98;;;0.90;99.90;;;;;;1934623;74;21469;-76
2022/02/14 05:12:41;;;;;;;5.97;3.47;;;0.90;99.90;;;;;;1934995;74;21123;-76
2022/02/14 05:15:08;;;;;;;10.50;3.35;;;1.00;99.90;;;;;;1934776;74;21111;-75
2022/02/14 05:17:36;;;;;;;6.80;3.20;;;0.90;99.90;;;;;;1934653;74;21039;-75
2022/02/14 05:20:04;;;;;;;3.27;2.90;;;0.90;99.90;;;;;;1934789;74;21041;-75
2022/02/14 05:22:31;;;;;;;12.60;3.60;;;0.80;99.90;;;;;;1934480;74;21115;-75
2022/02/14 05:24:59;;;;;;;7.53;4.05;;;0.80;99.90;;;;;;1934442;74;21041;-75
2022/02/14 05:27:26;;;;;;;6.17;3.47;;;0.90;99.90;;;;;;1934639;74;21061;-74
2022/02/14 05:29:54;;;;;;;7.97;3.55;;;1.00;99.90;;;;;;1934633;74;21119;-74
2022/02/14 05:32:23;;;;;;;8.93;3.37;;;0.90;99.90;;;;;;1934687;74;21069;-75
2022/02/14 05:34:50;;;;;;;4.95;3.58;;;0.80;99.90;;;;;;1934676;74;21084;-75
2022/02/14 05:37:17;;;;;;;8.35;3.40;;;0.80;99.90;;;;;;1934530;74;21425;-74
2022/02/14 05:39:46;;;;;;;12.68;3.85;;;0.90;99.90;;;;;;1934632;74;21025;-75
2022/02/14 05:42:14;;;;;;;8.35;3.40;;;0.90;99.90;;;;;;1934725;74;21151;-74
2022/02/14 05:44:41;;;;;;;5.83;3.00;;;0.90;99.90;;;;;;1934575;74;21045;-74
2022/02/14 05:47:08;;;;;;;7.33;3.35;;;0.80;99.90;;;;;;1934618;74;21469;-73
2022/02/14 05:49:37;;;;;;;5.72;3.33;;;0.80;99.90;;;;;;1934526;74;21049;-74
2022/02/14 05:52:04;;;;;;;6.35;3.75;;;0.70;99.90;;;;;;1934687;74;21410;-76
2022/02/14 05:54:32;;;;;;;16.32;3.85;;;0.60;99.90;;;;;;1934627;74;21123;-75
2022/02/14 05:57:02;;;;;;;7.67;2.70;;;0.80;99.90;;;;;;1934917;74;21029;-75
2022/02/14 05:59:31;;;;;;;11.83;4.12;;;0.70;99.90;;;;;;1934502;74;21065;-74
2022/02/14 06:01:58;;;;;;;7.58;3.35;;;0.70;99.90;;;;;;1934515;74;21102;-77
2022/02/14 06:04:25;;;;;;;8.65;5.35;;;0.80;99.90;;;;;;1934301;74;21200;-75
2022/02/14 06:06:55;;;;;;;10.13;5.87;;;0.90;99.90;;;;;;1934302;74;21057;-74
2022/02/14 06:09:26;;;;;;;12.45;8.03;;;0.90;99.90;;;;;;1934573;74;21145;-75
2022/02/14 06:11:51;;;;;;;7.62;4.80;;;0.80;99.90;;;;;;1933923;74;21030;-74
2022/02/14 06:14:19;;;;;;;10.28;5.45;;;0.70;99.90;;;;;;1934358;74;21181;-76
2022/02/14 06:16:46;;;;;;;6.33;3.75;;;0.80;99.90;;;;;;1934388;74;21138;-77
2022/02/14 06:19:13;;;;;;;12.18;5.22;;;0.80;99.90;;;;;;1934471;74;21511;-75
2022/02/14 06:21:41;;;;;;;13.58;4.17;;;0.90;99.90;;;;;;1934435;74;21037;-75
2022/02/14 06:24:08;;;;;;;6.83;4.28;;;1.00;99.90;;;;;;1934649;74;21390;-76
2022/02/14 06:26:35;;;;;;;4.37;3.27;;;1.10;99.90;;;;;;1934451;74;21382;-79
2022/02/14 06:29:03;;;;;;;11.75;3.85;;;1.10;99.90;;;;;;1934555;74;21211;-79
2022/02/14 06:31:31;;;;;;;18.32;4.95;;;1.10;99.90;;;;;;1934660;74;21111;-77
2022/02/14 06:33:58;;;;;;;9.73;4.75;;;1.30;99.90;;;;;;1934533;74;21006;-79
2022/02/14 06:36:26;;;;;;;6.35;4.03;;;1.30;99.90;;;;;;1934474;74;21010;-79
2022/02/14 06:38:54;;;;;;;19.32;4.75;;;1.30;99.90;;;;;;1934515;74;21524;-79
2022/02/14 06:41:23;;;;;;;20.57;5.35;;;1.30;99.90;;;;;;1934502;74;21045;-79
2022/02/14 06:43:51;;;;;;;7.55;4.78;;;1.40;99.90;;;;;;1934335;74;21443;-79
2022/02/14 06:46:18;;;;;;;16.85;5.53;;;1.50;99.90;;;;;;1934571;74;21065;-78
2022/02/14 06:48:46;;;;;;;6.78;3.92;;;1.50;99.90;;;;;;1934379;74;21533;-80
2022/02/14 06:51:13;;;;;;;10.05;4.58;;;1.50;99.90;;;;;;1934469;74;21212;-79
2022/02/14 06:53:41;;;;;;;11.90;5.60;;;1.40;99.90;;;;;;1934501;74;21130;-80
2022/02/14 06:56:08;;;;;;;10.15;5.75;;;1.50;99.90;;;;;;1934502;74;21471;-80
2022/02/14 06:58:36;;;;;;;17.07;6.35;;;1.60;99.90;;;;;;1934350;74;21049;-77
2022/02/14 07:01:04;;;;;;;8.93;5.55;;;1.70;99.90;;;;;;1934306;74;21163;-77
2022/02/14 07:03:31;;;;;;;10.50;5.92;;;1.70;99.90;;;;;;1934482;74;21532;-78
2022/02/14 07:05:58;;;;;;;8.75;5.25;;;1.70;99.90;;;;;;1934391;74;21111;-79
2022/02/14 07:08:26;;;;;;;6.83;4.67;;;1.70;99.90;;;;;;1934405;74;21111;-77
2022/02/14 07:10:53;;;;;;;11.05;5.05;;;1.70;99.90;;;;;;1934410;74;21088;-79
2022/02/14 07:13:20;;;;;;;7.87;4.70;;;1.70;99.90;;;;;;1934679;74;21378;-79
2022/02/14 07:15:48;;;;;;;8.23;6.05;;;1.60;99.90;;;;;;1934471;74;21112;-78
2022/02/14 07:18:15;;;;;;;13.22;6.22;;;1.60;99.90;;;;;;1934462;74;21011;-78
2022/02/14 07:20:44;;;;;;;9.90;5.12;;;1.60;99.90;;;;;;1934442;74;21507;-79
2022/02/14 07:23:11;;;;;;;15.55;6.03;;;1.60;99.90;;;;;;1934460;74;21049;-77
2022/02/14 07:25:38;;;;;;;9.95;5.80;;;1.50;99.90;;;;;;1934353;74;21050;-77
2022/02/14 07:28:06;;;;;;;16.75;6.45;;;1.50;99.90;;;;;;1934448;74;21437;-79
2022/02/14 07:30:33;;;;;;;11.15;5.53;;;1.60;99.90;;;;;;1934617;74;21085;-78
2022/02/14 07:33:02;;;;;;;13.70;5.80;;;1.60;99.90;;;;;;1934586;74;21045;-78
2022/02/14 07:35:29;;;;;;;13.08;6.10;;;1.60;99.90;;;;;;1934496;74;21069;-78
2022/02/14 07:37:57;;;;;;;18.00;6.35;;;1.70;99.90;;;;;;1934662;74;21103;-76
2022/02/14 07:40:26;;;;;;;10.40;5.58;;;1.70;99.90;;;;;;1934736;74;21065;-79
2022/02/14 07:42:56;;;;;;;16.67;6.50;;;1.70;99.90;;;;;;1934513;74;21078;-78
2022/02/14 07:45:23;;;;;;;12.82;6.40;;;1.70;99.90;;;;;;1934427;74;21069;-78
2022/02/14 07:47:51;;;;;;;11.50;6.30;;;1.80;99.90;;;;;;1934537;74;21065;-77
2022/02/14 07:50:20;;;;;;;14.07;6.62;;;1.90;99.90;;;;;;1934553;74;21053;-77
2022/02/14 07:52:47;;;;;;;9.98;6.25;;;2.00;99.90;;;;;;1934614;74;21081;-78
2022/02/14 07:55:15;;;;;;;12.28;6.33;;;2.10;99.90;;;;;;1934462;74;21115;-78
2022/02/14 07:57:43;;;;;;;12.00;6.17;;;2.10;99.90;;;;;;1934568;74;21426;-78
2022/02/14 08:00:12;;;;;;;10.23;5.08;;;2.20;99.90;;;;;;1934296;74;21103;-79
2022/02/14 08:02:42;;;;;;;10.23;5.85;;;2.30;99.90;;;;;;1934273;74;21069;-78
2022/02/14 08:05:10;;;;;;;14.87;5.60;;;2.50;99.90;;;;;;1934431;74;21033;-78
2022/02/14 08:07:37;;;;;;;13.13;5.85;;;2.50;99.90;;;;;;1898693;74;21029;-78
2022/02/14 08:10:04;;;;;;;17.50;5.87;;;2.50;99.90;;;;;;1934344;74;21053;-78
2022/02/14 08:12:34;;;;;;;9.33;6.17;;;2.60;99.90;;;;;;1934389;74;21503;-77
2022/02/14 08:15:01;;;;;;;16.90;6.33;;;2.70;99.90;;;;;;1934285;74;21127;-78
2022/02/14 08:17:29;;;;;;;11.90;6.67;;;2.90;99.90;;;;;;1934292;74;21045;-77
2022/02/14 08:19:56;;;;;;;22.35;6.17;;;3.10;99.90;;;;;;1934400;74;21362;-78
2022/02/14 08:22:23;;;;;;;13.70;6.17;;;3.30;99.90;;;;;;1934361;74;21154;-77
2022/02/14 08:24:51;;;;;;;14.35;6.42;;;3.50;99.90;;;;;;1934332;74;21010;-77
2022/02/14 08:27:18;;;;;;;11.57;6.78;;;3.70;99.90;;;;;;1934388;74;21010;-77
2022/02/14 08:29:46;;;;;;;11.05;5.97;;;3.80;99.90;;;;;;1934438;74;21103;-79
2022/02/14 08:32:15;;;;;;;14.30;7.00;;;3.90;99.90;;;;;;1934381;74;21085;-79
2022/02/14 08:34:43;;;;;;;15.72;7.25;;;4.10;99.90;;;;;;1934326;74;21057;-77
2022/02/14 08:37:11;;;;;;;11.53;6.47;;;4.20;99.90;;;;;;1934431;74;21417;-78
2022/02/14 08:39:41;;;;;;;35.85;7.72;;;4.50;99.90;;;;;;1934343;74;21057;-78
2022/02/14 08:42:08;;;;;;;;;;;4.70;99.90;;;;;;1937235;74;21041;-78
2022/02/14 08:44:35;;;;;;;17.87;7.40;;;5.00;99.90;;;;;;1934268;74;20171;-78
2022/02/14 08:47:03;;;;;;;27.45;8.03;;;5.10;99.90;;;;;;1934282;74;21037;-78
2022/02/14 08:49:34;;;;;;;19.00;7.28;;;5.20;99.90;;;;;;1934283;74;21111;-78
2022/02/14 08:51:59;;;;;;;18.50;8.08;;;5.40;99.90;;;;;;1933497;74;21187;-79
2022/02/14 08:54:27;;;;;;;17.70;7.17;;;5.70;99.90;;;;;;1935069;74;21071;-78
2022/02/14 08:56:56;;;;;;;22.58;8.23;;;6.00;99.90;;;;;;1934809;74;21124;-78
2022/02/14 08:59:24;;;;;;;26.17;8.63;;;6.30;99.90;;;;;;1934763;74;21139;-79
2022/02/14 09:01:51;;;;;;;23.02;8.15;;;6.70;99.90;;;;;;1934814;74;21081;-78
2022/02/14 09:04:18;;;;;;;16.07;7.17;;;7.00;99.90;;;;;;1934438;74;21461;-79
2022/02/14 09:06:46;;;;;;;20.08;6.50;;;7.40;99.90;;;;;;1935046;74;21473;-78
2022/02/14 09:09:13;;;;;;;21.10;7.30;;;7.50;99.90;;;;;;1935729;74;21614;-79
2022/02/14 09:11:41;;;;;;;17.70;7.30;;;7.70;99.90;;;;;;1934410;74;21042;-79
2022/02/14 09:14:09;;;;;;;23.67;8.08;;;8.00;99.90;;;;;;1934425;74;21034;-79
2022/02/14 09:16:36;;;;;;;14.25;6.60;;;8.40;99.90;;;;;;1934490;74;21014;-79
2022/02/14 09:19:03;;;;;;;10.75;5.83;;;8.80;99.90;;;;;;1934973;74;21496;-80
2022/02/14 09:21:31;;;;;;;19.85;5.65;;;9.20;99.90;;;;;;1934510;74;21143;-79
2022/02/14 09:23:58;;;;;;;11.65;5.47;;;9.40;99.90;;;;;;1934328;74;21025;-79
2022/02/14 09:26:25;;;;;;;9.08;5.22;;;9.90;99.90;;;;;;1934518;74;21112;-78
2022/02/14 09:28:53;;;;;;;10.35;4.60;;;10.80;99.90;;;;;;1934438;74;21046;-79
2022/02/14 09:31:20;;;;;;;5.33;2.62;;;11.50;99.90;;;;;;1934862;74;21037;-79
2022/02/14 09:33:47;;;;;;;5.45;2.62;;;11.90;99.90;;;;;;1934566;74;21502;-78
2022/02/14 09:36:16;;;;;;;7.08;2.70;;;12.00;99.90;;;;;;1934857;74;21081;-80
2022/02/14 09:38:44;;;;;;;8.45;2.33;;;12.20;99.10;;;;;;1934831;74;21152;-80
2022/02/14 09:41:11;;;;;;;3.30;2.20;;;12.20;98.00;;;;;;1934986;74;21033;-81
2022/02/14 09:43:39;;;;;;;3.98;2.15;;;11.90;97.60;;;;;;1934829;74;21088;-80
2022/02/14 09:46:06;;;;;;;6.53;3.33;;;11.90;98.40;;;;;;1934477;74;21127;-80
2022/02/14 09:48:34;;;;;;;3.62;2.27;;;11.60;96.60;;;;;;1934382;74;21003;-79
2022/02/14 09:51:01;;;;;;;4.95;2.20;;;12.00;98.40;;;;;;1934507;74;21139;-80
2022/02/14 09:53:29;;;;;;;5.45;2.33;;;12.20;97.70;;;;;;1898949;74;21034;-80
2022/02/14 09:55:56;;;;;;;6.70;2.25;;;12.10;99.00;;;;;;1934846;74;21111;-80
2022/02/14 09:58:24;;;;;;;9.73;2.70;;;12.10;97.40;;;;;;1934619;74;21111;-80
2022/02/14 10:00:51;;;;;;;7.75;2.65;;;11.90;97.20;;;;;;1934528;74;21111;-80
2022/02/14 10:03:23;;;;;;;4.87;2.72;;;12.10;97.50;;;;;;1934823;74;21115;-80
2022/02/14 10:05:56;;;;;;;4.08;2.30;;;12.10;96.80;;;;;;1934608;74;21026;-80
2022/02/14 10:08:37;;;;;;;5.50;2.62;;;12.70;95.10;;;;;;1934102;74;21096;-80
2022/02/14 10:11:12;;;;;;;8.13;2.47;;;12.60;95.30;;;;;;1934765;74;21061;-80
2022/02/14 10:13:40;;;;;;;10.15;2.80;;;12.70;96.50;;;;;;1934541;74;21038;-79
2022/02/14 10:16:12;;;;;;;4.22;2.58;;;12.60;96.20;;;;;;1934839;74;21434;-80
2022/02/14 10:18:40;;;;;;;6.90;2.70;;;12.40;95.40;;;;;;1934766;74;21033;-80
2022/02/14 10:21:20;;;;;;;7.67;2.60;;;12.50;96.00;;;;;;1934625;74;21041;-78
2022/02/14 10:24:02;;;;;;;4.42;2.20;;;12.80;95.60;;;;;;1934432;73;21123;-80
2022/02/14 10:26:45;;;;;;;5.42;2.62;;;12.80;95.40;;;;;;1934567;74;21526;-80
2022/02/14 10:29:27;;;;;;;6.95;2.90;;;13.00;94.70;;;;;;1934506;74;21402;-79
2022/02/14 10:32:01;;;;;;;9.08;2.90;;;12.90;94.80;;;;;;1934591;74;21243;-79
2022/02/14 10:34:49;;;;;;;4.40;2.40;;;12.90;95.90;;;;;;1934530;74;21066;-79
2022/02/14 10:37:19;;;;;;;8.45;2.90;;;12.90;95.90;;;;;;1934479;74;21034;-80
2022/02/14 10:39:47;;;;;;;4.20;2.77;;;13.10;96.30;;;;;;1934599;74;21410;-79
2022/02/14 10:42:18;;;;;;;5.70;2.47;;;13.30;95.90;;;;;;1895176;74;21485;-80
2022/02/14 10:47:46;;;;;;;9.45;3.08;;;13.00;97.10;;;;;;1935708;74;21121;-77
2022/02/14 10:50:18;;;;;;;6.62;3.10;;;13.00;95.90;;;;;;1935221;74;21090;-80
2022/02/14 10:52:55;;;;;;;5.20;2.60;;;12.80;97.00;;;;;;1936124;74;21081;-78
2022/02/14 10:55:26;;;;;;;6.33;2.42;;;12.80;97.20;;;;;;1934328;74;21069;-78
2022/02/14 10:57:54;;;;;;;9.38;2.90;;;12.70;97.90;;;;;;1935169;74;21127;-80
2022/02/14 11:00:23;;;;;;;22.55;5.17;;;12.90;98.20;;;;;;1935387;74;21049;-79
2022/02/14 11:02:56;;;;;;;9.28;3.30;;;12.70;98.40;;;;;;1935266;74;21037;-79
2022/02/14 11:05:22;;;;;;;8.08;3.00;;;12.80;99.20;;;;;;1899964;74;21127;-80
2022/02/14 11:07:50;;;;;;;6.33;2.40;;;13.10;99.90;;;;;;1935222;74;21049;-79
2022/02/14 11:10:18;;;;;;;7.42;2.52;;;13.50;99.90;;;;;;1935312;74;21033;-79
2022/02/14 11:12:58;;;;;;;11.22;2.83;;;13.70;99.90;;;;;;1893586;74;21065;-80
2022/02/14 11:15:28;;;;;;;4.72;2.33;;;13.80;99.70;;;;;;1933743;74;21034;-78
2022/02/14 11:17:58;;;;;;;5.53;2.30;;;13.90;99.90;;;;;;1901044;74;21410;-78
2022/02/14 11:20:25;;;;;;;;;;;13.70;99.90;;;;;;1938384;74;21033;-79
2022/02/14 11:22:58;;;;;;;2.35;1.52;;;13.80;99.90;;;;;;1935407;74;20113;-81
2022/02/14 11:25:37;;;;;;;5.37;1.77;;;13.90;99.90;;;;;;1935742;74;21077;-82
2022/02/14 11:28:25;;;;;;;8.85;2.27;;;13.70;99.90;;;;;;1935991;74;21080;-81
2022/02/14 11:31:20;;;;;;;3.02;1.70;;;13.80;99.90;;;;;;1936158;73;21090;-82
2022/02/14 11:33:52;;;;;;;9.80;1.60;;;14.00;99.90;;;;;;1934698;74;21145;-83
2022/02/14 11:36:19;;;;;;;2.27;1.32;;;13.90;99.90;;;;;;1936391;74;21127;-85
2022/02/14 11:38:54;;;;;;;4.60;1.25;;;13.60;99.90;;;;;;1936614;74;21431;-84
2022/02/14 11:41:39;;;;;;;21.70;1.62;;;13.50;99.90;;;;;;1935755;74;21002;-80
2022/02/14 11:44:22;;;;;;;1.50;1.20;;;13.50;99.90;;;;;;1935689;74;21123;-82
2022/02/14 11:46:55;;;;;;;7.22;1.75;;;13.50;99.90;;;;;;1935628;74;21200;-79
2022/02/14 11:49:35;;;;;;;2.72;0.88;;;13.50;99.90;;;;;;1935617;74;21030;-79
2022/02/14 11:52:04;;;;;;;2.57;1.30;;;13.50;99.90;;;;;;1935887;74;21089;-79
2022/02/14 11:54:42;;;;;;;2.08;1.00;;;13.60;99.90;;;;;;1935029;74;21413;-78
2022/02/14 11:57:36;;;;;;;2.60;1.40;;;13.60;99.90;;;;;;1934759;74;21056;-79
2022/02/14 12:00:15;;;;;;;5.00;1.52;;;13.50;99.90;;;;;;1934684;74;21439;-78
2022/02/14 12:03:02;;;;;;;1.62;1.10;;;13.50;99.90;;;;;;1934866;74;21026;-80
2022/02/14 12:05:50;;;;;;;4.12;1.20;;;13.50;99.90;;;;;;1931846;74;21095;-78
2022/02/14 12:08:19;;;;;;;2.83;1.57;;;13.60;99.90;;;;;;1934601;74;21127;-79
2022/02/14 12:10:51;;;;;;;3.87;1.32;;;13.50;99.90;;;;;;1934503;74;21477;-79
2022/02/14 12:13:20;;;;;;;4.17;1.42;;;13.40;99.90;;;;;;1929488;74;21042;-80
2022/02/14 12:21:13;;;;;;;3.65;1.98;;;13.30;99.90;;;;;;1934530;74;21078;-82
2022/02/14 12:23:42;;;;;;;1.25;1.00;;;13.30;99.90;;;;;;1934237;74;21107;-81
2022/02/14 12:26:11;;;;;;;3.02;1.20;;;13.20;99.90;;;;;;1898705;74;21449;-82
2022/02/14 12:28:39;;;;;;;2.47;1.20;;;13.10;99.90;;;;;;1898735;74;21099;-82
2022/02/14 12:31:07;;;;;;;1.75;0.82;;;13.00;99.90;;;;;;1898933;74;21456;-81
2022/02/14 12:33:34;;;;;;;5.22;1.27;;;12.90;99.90;;;;;;1934637;74;21014;-80
2022/02/14 12:36:04;;;;;;;2.98;0.90;;;12.90;99.90;;;;;;1934544;74;21425;-77
2022/02/14 12:38:32;;;;;;;3.62;1.32;;;12.80;99.90;;;;;;1899082;74;21014;-79
2022/02/14 12:41:04;;;;;;;1.85;0.95;;;12.90;99.90;;;;;;1898642;74;21026;-85
2022/02/14 12:43:52;;;;;;;1.25;0.80;;;12.90;99.90;;;;;;1934509;74;21049;-77
2022/02/14 12:46:21;;;;;;;2.15;1.00;;;12.80;99.90;;;;;;1931529;74;21093;-78
2022/02/14 12:48:52;;;;;;;2.02;1.15;;;12.80;99.90;;;;;;1935878;74;21088;-78
2022/02/14 12:51:29;;;;;;;4.35;1.75;;;12.80;99.90;;;;;;1935801;74;20994;-77
2022/02/14 12:53:59;;;;;;;5.03;1.35;;;12.80;99.90;;;;;;1935768;74;21049;-79
2022/02/14 12:56:31;;;;;;;1.53;1.00;;;12.90;99.90;;;;;;1935271;74;21048;-78
2022/02/14 12:59:03;;;;;;;3.27;1.07;;;12.90;99.90;;;;;;1935781;74;21042;-78
2022/02/14 13:01:34;;;;;;;1.80;1.00;;;12.90;99.90;;;;;;1934796;74;21099;-82
2022/02/14 13:04:01;;;;;;;;;;;13.10;99.90;;;;;;1935219;73;21049;-78
2022/02/14 13:06:50;;;;;;;3.22;1.10;;;13.00;99.90;;;;;;1934479;74;20344;-77